Time;durP1;ratioP1;P1;durP2;ratioP2;P2;SDS_P1;SDS_P2;PMS_P1;PMS_P2;Temp;Humidity;BMP_temperature;BMP_pressure;BME280_temperature;BME280_humidity;BME280_pressure;Samples;Min_cycle;Max_cycle;Signal;HPM_P1;HPM_P2
2021/10/21 00:00:34;;;;;;;6.73;2.30;;;;;;;;;;5951540;24;20104;-57
2021/10/21 00:03:01;;;;;;;8.43;2.63;;;;;;;;;;5991217;23;20271;-57
2021/10/21 00:05:28;;;;;;;6.28;2.83;;;;;;;;;;5986468;23;20034;-56
2021/10/21 00:07:54;;;;;;;7.80;2.85;;;;;;;;;;5950064;24;20034;-57
2021/10/21 00:10:21;;;;;;;10.50;2.33;;;;;;;;;;5959658;23;20038;-56
2021/10/21 00:12:47;;;;;;;12.35;2.65;;;;;;;;;;5961624;23;20105;-56
2021/10/21 00:15:15;;;;;;;6.30;2.53;;;;;;;;;;5962955;23;20058;-57
2021/10/21 00:17:42;;;;;;;7.85;2.95;;;;;;;;;;5935454;23;20026;-57
2021/10/21 00:20:10;;;;;;;5.35;2.28;;;;;;;;;;5986408;23;20057;-57
2021/10/21 00:22:36;;;;;;;10.93;2.67;;;;;;;;;;5962167;23;20046;-57
2021/10/21 00:25:03;;;;;;;8.95;2.78;;;;;;;;;;5962956;23;20034;-57
2021/10/21 00:27:29;;;;;;;5.78;2.70;;;;;;;;;;5968666;23;20041;-57
2021/10/21 00:29:56;;;;;;;11.30;2.70;;;;;;;;;;5967663;23;20038;-56
2021/10/21 00:32:24;;;;;;;9.95;3.20;;;;;;;;;;5975649;23;20127;-57
2021/10/21 00:34:50;;;;;;;6.87;3.23;;;;;;;;;;5966101;23;20030;-56
2021/10/21 00:37:24;;;;;;;8.00;2.58;;;;;;;;;;5973347;23;20110;-54
2021/10/21 00:39:51;;;;;;;6.82;3.05;;;;;;;;;;5972739;23;20048;-56
2021/10/21 00:42:19;;;;;;;6.07;2.47;;;;;;;;;;5968250;23;20045;-57
2021/10/21 00:44:46;;;;;;;9.27;2.72;;;;;;;;;;5991436;23;20030;-56
2021/10/21 00:47:13;;;;;;;8.40;2.60;;;;;;;;;;5965733;23;20108;-57
2021/10/21 00:49:41;;;;;;;11.07;3.13;;;;;;;;;;5969151;23;20038;-56
2021/10/21 00:52:07;;;;;;;6.32;2.90;;;;;;;;;;5967289;24;20119;-57
2021/10/21 00:54:34;;;;;;;7.30;2.88;;;;;;;;;;5962445;24;20029;-54
2021/10/21 00:57:02;;;;;;;6.05;2.20;;;;;;;;;;5965374;23;20038;-58
2021/10/21 00:59:30;;;;;;;6.73;2.33;;;;;;;;;;5964863;23;20034;-57
2021/10/21 01:01:57;;;;;;;8.35;2.13;;;;;;;;;;5961933;24;20026;-57
2021/10/21 01:04:24;;;;;;;6.70;2.07;;;;;;;;;;5965489;23;20029;-57
2021/10/21 01:06:53;;;;;;;6.55;1.95;;;;;;;;;;5980560;23;20046;-57
2021/10/21 01:09:19;;;;;;;6.25;1.90;;;;;;;;;;5970173;23;20018;-56
2021/10/21 01:11:46;;;;;;;7.75;1.88;;;;;;;;;;5968493;23;20038;-56
2021/10/21 01:14:12;;;;;;;5.20;1.83;;;;;;;;;;5958793;24;20053;-57
2021/10/21 01:16:40;;;;;;;6.60;2.00;;;;;;;;;;5985883;23;20045;-57
2021/10/21 01:19:13;;;;;;;5.00;1.75;;;;;;;;;;5957846;24;20074;-57
2021/10/21 01:21:41;;;;;;;6.90;1.88;;;;;;;;;;5966521;23;20034;-58
2021/10/21 01:24:08;;;;;;;4.63;1.37;;;;;;;;;;5962604;23;20050;-56
2021/10/21 01:26:36;;;;;;;12.77;1.83;;;;;;;;;;5963996;24;20018;-57
2021/10/21 01:29:03;;;;;;;;;;;;;;;;;;5963632;24;20038;-56
2021/10/21 01:31:29;;;;;;;8.32;0.70;;;;;;;;;;5964535;23;20003;-57
2021/10/21 01:33:55;;;;;;;2.97;0.75;;;;;;;;;;5967045;23;20108;-56
2021/10/21 01:36:22;;;;;;;0.98;0.50;;;;;;;;;;5978830;23;20049;-55
2021/10/21 01:38:50;;;;;;;1.13;0.52;;;;;;;;;;5958683;23;20034;-56
2021/10/21 01:41:17;;;;;;;2.33;0.33;;;;;;;;;;5965647;24;20030;-56
2021/10/21 01:43:44;;;;;;;1.92;0.52;;;;;;;;;;5975347;23;20044;-57
2021/10/21 01:46:10;;;;;;;0.88;0.40;;;;;;;;;;5954549;24;20037;-57
2021/10/21 01:48:37;;;;;;;1.30;0.65;;;;;;;;;;5965670;23;20040;-57
2021/10/21 01:51:04;;;;;;;1.48;0.47;;;;;;;;;;5962123;24;20029;-58
2021/10/21 01:53:30;;;;;;;2.70;0.50;;;;;;;;;;5956783;24;20190;-57
2021/10/21 01:56:00;;;;;;;1.25;0.43;;;;;;;;;;5968445;23;20038;-57
2021/10/21 01:58:27;;;;;;;1.75;0.40;;;;;;;;;;5967933;23;20054;-57
2021/10/21 02:00:54;;;;;;;4.55;0.40;;;;;;;;;;5989466;23;20038;-57
2021/10/21 02:03:20;;;;;;;2.25;0.50;;;;;;;;;;5993833;23;20137;-58
2021/10/21 02:05:48;;;;;;;2.13;0.45;;;;;;;;;;6001586;23;20022;-57
2021/10/21 02:08:16;;;;;;;6.00;0.50;;;;;;;;;;5998692;23;20057;-58
2021/10/21 02:10:43;;;;;;;3.10;0.38;;;;;;;;;;5972965;23;20034;-57
2021/10/21 02:13:11;;;;;;;1.65;0.47;;;;;;;;;;5997392;23;20036;-58
2021/10/21 02:15:37;;;;;;;2.27;0.53;;;;;;;;;;5961896;23;20026;-58
2021/10/21 02:18:04;;;;;;;2.03;0.50;;;;;;;;;;5969690;24;20026;-57
2021/10/21 02:20:31;;;;;;;0.82;0.40;;;;;;;;;;5961964;24;20050;-57
2021/10/21 02:22:57;;;;;;;4.80;0.82;;;;;;;;;;5979973;24;20041;-58
2021/10/21 02:25:24;;;;;;;1.70;0.60;;;;;;;;;;6011877;23;20309;-57
2021/10/21 02:27:51;;;;;;;2.85;0.60;;;;;;;;;;5994772;23;20038;-57
2021/10/21 02:30:19;;;;;;;6.40;0.68;;;;;;;;;;5963182;24;20026;-57
2021/10/21 02:32:46;;;;;;;6.35;1.75;;;;;;;;;;5965103;24;20120;-57
2021/10/21 02:35:13;;;;;;;3.80;0.60;;;;;;;;;;5966536;24;20120;-57
2021/10/21 02:37:41;;;;;;;2.83;0.60;;;;;;;;;;5969390;24;20026;-57
2021/10/21 02:40:09;;;;;;;3.60;0.50;;;;;;;;;;5968334;24;20097;-57
2021/10/21 02:42:36;;;;;;;1.55;0.60;;;;;;;;;;5964118;23;20030;-56
2021/10/21 02:45:03;;;;;;;1.88;0.45;;;;;;;;;;5968057;23;20048;-57
2021/10/21 02:47:31;;;;;;;2.75;0.57;;;;;;;;;;5963975;23;20038;-57
2021/10/21 02:49:57;;;;;;;7.53;0.70;;;;;;;;;;5967655;23;20092;-57
2021/10/21 02:52:24;;;;;;;4.97;0.80;;;;;;;;;;5963489;24;20029;-57
2021/10/21 02:54:50;;;;;;;5.68;0.65;;;;;;;;;;5969581;24;20040;-57
2021/10/21 02:57:17;;;;;;;4.13;0.77;;;;;;;;;;5964574;23;20034;-57
2021/10/21 02:59:43;;;;;;;4.18;0.45;;;;;;;;;;5967979;23;20053;-56
2021/10/21 03:02:10;;;;;;;3.28;1.20;;;;;;;;;;6004266;23;20040;-57
2021/10/21 03:04:38;;;;;;;5.75;0.95;;;;;;;;;;5969352;24;20106;-57
2021/10/21 03:07:04;;;;;;;5.67;1.23;;;;;;;;;;5966128;24;20124;-57
2021/10/21 03:09:31;;;;;;;6.63;0.90;;;;;;;;;;5995326;23;20034;-57
2021/10/21 03:11:57;;;;;;;6.40;0.80;;;;;;;;;;5966496;24;20030;-57
2021/10/21 03:14:24;;;;;;;4.50;0.60;;;;;;;;;;5995223;23;20034;-57
2021/10/21 03:16:55;;;;;;;0.65;0.30;;;;;;;;;;5966869;24;20041;-57
2021/10/21 03:19:21;;;;;;;4.45;0.70;;;;;;;;;;5970016;24;20034;-58
2021/10/21 03:21:49;;;;;;;2.72;0.52;;;;;;;;;;5970036;24;20030;-58
2021/10/21 03:24:16;;;;;;;3.63;0.68;;;;;;;;;;5965434;23;20030;-56
2021/10/21 03:26:42;;;;;;;2.88;0.52;;;;;;;;;;5970027;23;20124;-58
2021/10/21 03:29:09;;;;;;;5.30;0.55;;;;;;;;;;5965283;24;20112;-58
2021/10/21 03:31:35;;;;;;;2.47;0.57;;;;;;;;;;5994392;23;20026;-58
2021/10/21 03:34:02;;;;;;;3.53;0.60;;;;;;;;;;5992038;23;20041;-58
2021/10/21 03:36:30;;;;;;;0.98;0.50;;;;;;;;;;5994644;23;20123;-58
2021/10/21 03:38:57;;;;;;;3.37;0.63;;;;;;;;;;5962163;24;20042;-57
2021/10/21 03:41:24;;;;;;;3.03;0.60;;;;;;;;;;5966565;24;20030;-58
2021/10/21 03:43:50;;;;;;;4.18;0.70;;;;;;;;;;5979920;23;20045;-58
2021/10/21 03:46:21;;;;;;;2.45;0.70;;;;;;;;;;5997717;23;20022;-58
2021/10/21 03:48:47;;;;;;;4.35;0.60;;;;;;;;;;6004383;23;20033;-58
2021/10/21 03:51:14;;;;;;;2.95;0.50;;;;;;;;;;6016503;23;20022;-58
2021/10/21 03:53:41;;;;;;;2.95;0.65;;;;;;;;;;6012123;23;20018;-57
2021/10/21 03:56:09;;;;;;;6.50;0.68;;;;;;;;;;5970404;24;20050;-57
2021/10/21 03:58:36;;;;;;;1.83;0.50;;;;;;;;;;5966165;24;20034;-57
2021/10/21 04:01:02;;;;;;;3.55;0.70;;;;;;;;;;5992794;23;20045;-58
2021/10/21 04:03:29;;;;;;;0.85;0.40;;;;;;;;;;5969996;24;20120;-58
2021/10/21 04:05:57;;;;;;;11.68;1.15;;;;;;;;;;5989551;23;20034;-58
2021/10/21 04:08:23;;;;;;;2.90;0.60;;;;;;;;;;5969092;24;20034;-58
2021/10/21 04:10:50;;;;;;;3.35;0.68;;;;;;;;;;5944829;23;20047;-57
2021/10/21 04:13:18;;;;;;;3.78;0.70;;;;;;;;;;5969679;23;20169;-57
2021/10/21 04:15:45;;;;;;;4.25;0.70;;;;;;;;;;5966084;23;20026;-58
2021/10/21 04:18:11;;;;;;;2.75;0.70;;;;;;;;;;5969789;24;20041;-57
2021/10/21 04:20:37;;;;;;;6.32;0.80;;;;;;;;;;5963262;24;20034;-57
2021/10/21 04:23:04;;;;;;;3.78;0.60;;;;;;;;;;5968854;23;20045;-57
2021/10/21 04:25:30;;;;;;;2.95;0.60;;;;;;;;;;5965203;24;20038;-57
2021/10/21 04:27:57;;;;;;;3.85;0.60;;;;;;;;;;6016758;23;20040;-57
2021/10/21 04:30:25;;;;;;;3.20;0.50;;;;;;;;;;5966059;24;20030;-57
2021/10/21 04:32:51;;;;;;;4.50;0.80;;;;;;;;;;5954615;24;20053;-57
2021/10/21 04:35:18;;;;;;;3.65;0.70;;;;;;;;;;5968754;23;20050;-56
2021/10/21 04:37:44;;;;;;;1.27;0.38;;;;;;;;;;6015649;23;20034;-58
2021/10/21 04:40:11;;;;;;;5.55;0.70;;;;;;;;;;5991590;23;20034;-57
2021/10/21 04:42:38;;;;;;;2.72;0.70;;;;;;;;;;5970852;24;20051;-57
2021/10/21 04:45:04;;;;;;;3.63;0.80;;;;;;;;;;5968356;24;20058;-58
2021/10/21 04:47:33;;;;;;;5.60;0.60;;;;;;;;;;5961364;24;20050;-58
2021/10/21 04:49:59;;;;;;;2.35;0.70;;;;;;;;;;5986835;23;20058;-57
2021/10/21 04:52:25;;;;;;;5.00;0.85;;;;;;;;;;5969242;23;20034;-58
2021/10/21 04:54:52;;;;;;;6.82;0.85;;;;;;;;;;5969459;24;20129;-57
2021/10/21 04:57:18;;;;;;;2.25;0.45;;;;;;;;;;5983782;23;20034;-57
2021/10/21 04:59:45;;;;;;;5.38;0.73;;;;;;;;;;5964262;24;20054;-58
2021/10/21 05:02:11;;;;;;;1.83;0.63;;;;;;;;;;5966238;24;20089;-58
2021/10/21 05:04:39;;;;;;;3.85;1.00;;;;;;;;;;6017061;23;20026;-58
2021/10/21 05:07:07;;;;;;;8.50;3.20;;;;;;;;;;5966270;23;20026;-57
2021/10/21 05:09:33;;;;;;;5.80;2.05;;;;;;;;;;5991930;23;20089;-59
2021/10/21 05:11:59;;;;;;;5.55;1.70;;;;;;;;;;5992012;23;20034;-57
2021/10/21 05:14:26;;;;;;;4.13;1.00;;;;;;;;;;5968529;23;20290;-58
2021/10/21 05:16:57;;;;;;;4.55;1.00;;;;;;;;;;5970560;23;20037;-58
2021/10/21 05:19:24;;;;;;;6.50;1.08;;;;;;;;;;5972243;23;20045;-56
2021/10/21 05:21:52;;;;;;;5.90;0.90;;;;;;;;;;5964072;24;20034;-55
2021/10/21 05:24:20;;;;;;;3.75;0.77;;;;;;;;;;5970655;24;20038;-58
2021/10/21 05:26:46;;;;;;;6.07;1.52;;;;;;;;;;5964972;23;20046;-57
2021/10/21 05:29:13;;;;;;;2.97;0.82;;;;;;;;;;5970282;24;20038;-56
2021/10/21 05:31:39;;;;;;;1.02;0.80;;;;;;;;;;5967882;23;20033;-57
2021/10/21 05:34:08;;;;;;;4.70;1.10;;;;;;;;;;5988350;23;20030;-57
2021/10/21 05:36:35;;;;;;;3.20;0.90;;;;;;;;;;5971674;23;20077;-57
2021/10/21 05:39:03;;;;;;;8.13;0.65;;;;;;;;;;5960471;23;20030;-57
2021/10/21 05:41:29;;;;;;;0.80;0.47;;;;;;;;;;5968160;23;20094;-58
2021/10/21 05:43:56;;;;;;;1.20;0.30;;;;;;;;;;5974847;23;20288;-57
2021/10/21 05:46:25;;;;;;;3.88;1.05;;;;;;;;;;5968402;23;20034;-57
2021/10/21 05:48:51;;;;;;;;;;;;;;;;;;5963601;23;20081;-58
2021/10/21 05:51:17;;;;;;;1.70;0.50;;;;;;;;;;5984552;23;19913;-57
2021/10/21 05:53:44;;;;;;;1.17;0.40;;;;;;;;;;5985156;24;20022;-58
2021/10/21 05:56:15;;;;;;;2.20;0.73;;;;;;;;;;5989477;23;20078;-57
2021/10/21 05:58:43;;;;;;;4.25;0.60;;;;;;;;;;5965587;23;20070;-57
2021/10/21 06:01:10;;;;;;;3.23;0.50;;;;;;;;;;5993244;23;20041;-58
2021/10/21 06:03:38;;;;;;;3.75;0.47;;;;;;;;;;5946573;23;20034;-58
2021/10/21 06:06:05;;;;;;;4.22;0.60;;;;;;;;;;5955430;24;20044;-57
2021/10/21 06:08:31;;;;;;;1.70;0.40;;;;;;;;;;5961497;23;20034;-58
2021/10/21 06:10:58;;;;;;;3.58;0.80;;;;;;;;;;5967466;23;20126;-57
2021/10/21 06:13:24;;;;;;;2.25;0.52;;;;;;;;;;5995552;23;20030;-57
2021/10/21 06:15:53;;;;;;;6.78;1.25;;;;;;;;;;5963731;23;20031;-58
2021/10/21 06:18:19;;;;;;;3.53;1.00;;;;;;;;;;5987999;23;20035;-58
2021/10/21 06:20:46;;;;;;;2.20;0.50;;;;;;;;;;5965862;23;20041;-58
2021/10/21 06:23:12;;;;;;;3.55;0.50;;;;;;;;;;5968731;24;20045;-58
2021/10/21 06:25:39;;;;;;;2.08;0.50;;;;;;;;;;5954060;24;20053;-58
2021/10/21 06:28:06;;;;;;;4.13;0.70;;;;;;;;;;5969131;24;20116;-59
2021/10/21 06:30:32;;;;;;;6.18;0.90;;;;;;;;;;6003950;23;20034;-58
2021/10/21 06:33:00;;;;;;;5.45;0.80;;;;;;;;;;5971023;24;20041;-57
2021/10/21 06:35:27;;;;;;;3.23;0.60;;;;;;;;;;5961794;24;20042;-58
2021/10/21 06:37:53;;;;;;;3.67;0.43;;;;;;;;;;5967071;24;20287;-58
2021/10/21 06:40:20;;;;;;;2.58;0.50;;;;;;;;;;5967507;24;20030;-58
2021/10/21 06:42:46;;;;;;;10.30;0.93;;;;;;;;;;5970222;24;20086;-58
2021/10/21 06:45:13;;;;;;;2.90;0.60;;;;;;;;;;5991415;23;20038;-58
2021/10/21 06:47:41;;;;;;;6.20;0.80;;;;;;;;;;5972136;24;20026;-58
2021/10/21 06:50:09;;;;;;;7.05;0.88;;;;;;;;;;5968813;23;20090;-58
2021/10/21 06:52:37;;;;;;;4.57;0.90;;;;;;;;;;5994955;23;20033;-58
2021/10/21 06:55:04;;;;;;;2.40;0.80;;;;;;;;;;5994594;23;20030;-58
2021/10/21 06:57:31;;;;;;;8.52;0.80;;;;;;;;;;5989859;23;20137;-57
2021/10/21 06:59:58;;;;;;;9.50;1.05;;;;;;;;;;5993570;23;20034;-58
2021/10/21 07:02:24;;;;;;;4.05;0.80;;;;;;;;;;5966756;24;20041;-58
2021/10/21 07:04:51;;;;;;;7.05;0.80;;;;;;;;;;6017085;23;20034;-58
2021/10/21 07:07:19;;;;;;;10.75;0.98;;;;;;;;;;5995431;23;20195;-58
2021/10/21 07:09:45;;;;;;;9.93;1.37;;;;;;;;;;5969513;24;20034;-58
2021/10/21 07:12:11;;;;;;;6.15;1.20;;;;;;;;;;5965568;24;20294;-58
2021/10/21 07:14:38;;;;;;;9.65;1.20;;;;;;;;;;5969367;24;20033;-57
2021/10/21 07:17:06;;;;;;;4.25;0.80;;;;;;;;;;5977747;23;20397;-58
2021/10/21 07:19:32;;;;;;;13.47;1.27;;;;;;;;;;5995104;23;20049;-58
2021/10/21 07:21:59;;;;;;;11.43;1.15;;;;;;;;;;5983176;23;20271;-58
2021/10/21 07:24:28;;;;;;;11.25;1.02;;;;;;;;;;5964951;24;20053;-58
2021/10/21 07:26:54;;;;;;;11.63;2.00;;;;;;;;;;5988062;24;20048;-58
2021/10/21 07:29:21;;;;;;;13.45;1.90;;;;;;;;;;5968449;24;20111;-58
2021/10/21 07:31:47;;;;;;;7.45;1.88;;;;;;;;;;5964178;24;20044;-58
2021/10/21 07:34:14;;;;;;;9.18;1.13;;;;;;;;;;5968967;24;20037;-57
2021/10/21 07:36:40;;;;;;;5.28;1.02;;;;;;;;;;5967422;24;20116;-58
2021/10/21 07:39:07;;;;;;;9.38;1.20;;;;;;;;;;5966783;23;20045;-61
2021/10/21 07:41:35;;;;;;;10.52;1.20;;;;;;;;;;5995993;23;20041;-58
2021/10/21 07:44:02;;;;;;;9.80;1.38;;;;;;;;;;5966039;24;20038;-58
2021/10/21 07:46:29;;;;;;;16.95;1.55;;;;;;;;;;5970744;24;20040;-57
2021/10/21 07:48:56;;;;;;;14.40;1.35;;;;;;;;;;5965733;24;20054;-58
2021/10/21 07:51:22;;;;;;;6.38;1.13;;;;;;;;;;5969091;24;20034;-57
2021/10/21 07:53:49;;;;;;;5.22;0.88;;;;;;;;;;5966149;24;20045;-58
2021/10/21 07:56:15;;;;;;;12.30;1.33;;;;;;;;;;5993193;23;20089;-58
2021/10/21 07:58:43;;;;;;;5.80;0.85;;;;;;;;;;5965156;24;20116;-61
2021/10/21 08:01:10;;;;;;;10.07;1.27;;;;;;;;;;5992982;23;20132;-57
2021/10/21 08:03:36;;;;;;;13.82;1.65;;;;;;;;;;5990300;23;20053;-57
2021/10/21 08:06:03;;;;;;;11.52;1.27;;;;;;;;;;5967298;24;20062;-58
2021/10/21 08:08:30;;;;;;;7.93;1.30;;;;;;;;;;5965978;24;20030;-58
2021/10/21 08:10:57;;;;;;;10.82;1.73;;;;;;;;;;5993970;23;20041;-58
2021/10/21 08:13:23;;;;;;;10.38;1.63;;;;;;;;;;5967602;23;20100;-58
2021/10/21 08:15:51;;;;;;;7.85;1.10;;;;;;;;;;5968826;24;20040;-58
2021/10/21 08:18:18;;;;;;;7.20;1.20;;;;;;;;;;5972767;24;20041;-58
2021/10/21 08:20:44;;;;;;;13.15;1.60;;;;;;;;;;5991335;23;20045;-57
2021/10/21 08:23:11;;;;;;;10.77;1.60;;;;;;;;;;6006318;23;20045;-57
2021/10/21 08:25:39;;;;;;;8.75;1.65;;;;;;;;;;5961259;24;20030;-57
2021/10/21 08:28:06;;;;;;;6.55;1.13;;;;;;;;;;5962557;24;20039;-58
2021/10/21 08:30:36;;;;;;;9.52;1.25;;;;;;;;;;5989476;23;20034;-58
2021/10/21 08:33:04;;;;;;;7.57;1.30;;;;;;;;;;5965293;23;20022;-58
2021/10/21 08:35:32;;;;;;;8.80;1.38;;;;;;;;;;5992838;23;20093;-58
2021/10/21 08:37:59;;;;;;;12.82;1.40;;;;;;;;;;5967073;24;20034;-58
2021/10/21 08:40:26;;;;;;;8.88;1.20;;;;;;;;;;5953196;24;20038;-57
2021/10/21 08:42:53;;;;;;;8.60;1.20;;;;;;;;;;5963720;24;20039;-58
2021/10/21 08:45:20;;;;;;;14.02;2.10;;;;;;;;;;5947713;23;20038;-57
2021/10/21 08:47:48;;;;;;;8.07;1.65;;;;;;;;;;5956733;24;20129;-58
2021/10/21 08:50:17;;;;;;;6.32;1.23;;;;;;;;;;5969242;23;20046;-58
2021/10/21 08:52:44;;;;;;;6.22;1.02;;;;;;;;;;5966910;24;20026;-58
2021/10/21 08:55:11;;;;;;;5.20;1.25;;;;;;;;;;5965879;23;20038;-58
2021/10/21 08:57:37;;;;;;;3.25;0.93;;;;;;;;;;5967995;24;20030;-58
2021/10/21 09:00:05;;;;;;;4.47;1.20;;;;;;;;;;5966254;24;20026;-58
2021/10/21 09:02:39;;;;;;;5.63;1.02;;;;;;;;;;5968042;24;20049;-58
2021/10/21 09:05:09;;;;;;;9.27;1.30;;;;;;;;;;5990835;23;20030;-56
2021/10/21 09:07:56;;;;;;;3.13;0.85;;;;;;;;;;5957004;23;20038;-58
2021/10/21 09:10:23;;;;;;;5.85;1.10;;;;;;;;;;5962931;24;20116;-57
2021/10/21 09:12:50;;;;;;;9.95;1.17;;;;;;;;;;5963624;23;20034;-57
2021/10/21 09:15:18;;;;;;;5.13;0.90;;;;;;;;;;5943877;24;20046;-57
2021/10/21 09:17:45;;;;;;;8.38;1.00;;;;;;;;;;5964025;23;20037;-58
2021/10/21 09:20:22;;;;;;;7.88;1.15;;;;;;;;;;5968385;24;20042;-57
2021/10/21 09:22:53;;;;;;;7.93;0.90;;;;;;;;;;5955055;24;20107;-57
2021/10/21 09:25:22;;;;;;;9.25;1.40;;;;;;;;;;5994012;23;20133;-57
2021/10/21 09:27:48;;;;;;;7.18;1.15;;;;;;;;;;5964489;24;20038;-58
2021/10/21 09:30:19;;;;;;;4.90;0.80;;;;;;;;;;5965643;24;20034;-58
2021/10/21 09:32:46;;;;;;;2.85;0.80;;;;;;;;;;5979129;24;20040;-58
2021/10/21 09:35:14;;;;;;;9.68;0.98;;;;;;;;;;6018081;23;20038;-58
2021/10/21 09:37:43;;;;;;;3.30;0.68;;;;;;;;;;6003793;23;20034;-58
2021/10/21 09:40:15;;;;;;;8.40;0.90;;;;;;;;;;5969205;24;20034;-58
2021/10/21 09:42:43;;;;;;;7.40;1.35;;;;;;;;;;5961653;24;20037;-58
2021/10/21 09:45:14;;;;;;;9.13;1.83;;;;;;;;;;5969696;24;20033;-58
2021/10/21 09:47:42;;;;;;;11.70;3.22;;;;;;;;;;5993454;23;20085;-58
2021/10/21 09:50:19;;;;;;;5.20;1.00;;;;;;;;;;5973023;24;20040;-62
2021/10/21 09:53:02;;;;;;;4.05;0.68;;;;;;;;;;5960867;23;20053;-56
2021/10/21 09:55:30;;;;;;;3.72;0.70;;;;;;;;;;5973257;24;20057;-58
2021/10/21 09:57:59;;;;;;;4.88;1.00;;;;;;;;;;5962498;23;20140;-57
2021/10/21 10:00:28;;;;;;;9.10;0.75;;;;;;;;;;5956542;24;20041;-57
2021/10/21 10:03:05;;;;;;;3.95;0.73;;;;;;;;;;5963837;24;20057;-58
2021/10/21 10:05:32;;;;;;;5.53;0.80;;;;;;;;;;6016577;23;20041;-58
2021/10/21 10:07:59;;;;;;;8.13;1.00;;;;;;;;;;6013203;23;20049;-58
2021/10/21 10:10:25;;;;;;;2.13;0.77;;;;;;;;;;6015623;23;20116;-57
2021/10/21 10:12:54;;;;;;;4.05;0.90;;;;;;;;;;5969038;23;20038;-57
2021/10/21 10:15:21;;;;;;;2.55;0.60;;;;;;;;;;5981992;23;20104;-57
2021/10/21 10:17:47;;;;;;;3.65;0.90;;;;;;;;;;5970787;24;20034;-60
2021/10/21 10:20:14;;;;;;;5.50;0.68;;;;;;;;;;5992188;23;20045;-60
2021/10/21 10:22:41;;;;;;;4.85;0.90;;;;;;;;;;6001482;23;20116;-60
2021/10/21 10:25:16;;;;;;;5.00;0.75;;;;;;;;;;5965941;24;20058;-60
2021/10/21 10:27:54;;;;;;;5.00;0.80;;;;;;;;;;5968552;24;20033;-60
2021/10/21 10:30:35;;;;;;;11.05;2.33;;;;;;;;;;5989315;23;20054;-58
2021/10/21 10:33:02;;;;;;;12.38;2.03;;;;;;;;;;5968290;24;20032;-58
2021/10/21 10:35:32;;;;;;;5.95;0.93;;;;;;;;;;5980110;23;20061;-58
2021/10/21 10:38:00;;;;;;;4.25;0.60;;;;;;;;;;5969035;24;20037;-58
2021/10/21 10:40:42;;;;;;;9.85;0.98;;;;;;;;;;5962279;24;20081;-58
2021/10/21 10:43:10;;;;;;;12.23;1.20;;;;;;;;;;5963129;24;20056;-58
2021/10/21 10:45:41;;;;;;;13.40;1.25;;;;;;;;;;5995638;23;20041;-58
2021/10/21 10:48:08;;;;;;;7.35;0.95;;;;;;;;;;5967154;24;20022;-58
2021/10/21 10:50:51;;;;;;;9.13;1.10;;;;;;;;;;5960914;24;20046;-58
2021/10/21 10:53:18;;;;;;;6.18;1.48;;;;;;;;;;5962179;23;20039;-57
2021/10/21 10:55:47;;;;;;;8.80;1.92;;;;;;;;;;5964904;23;20045;-57
2021/10/21 10:58:16;;;;;;;5.95;0.85;;;;;;;;;;5992416;23;20046;-58
2021/10/21 11:00:59;;;;;;;8.75;1.23;;;;;;;;;;5959170;23;20065;-58
2021/10/21 11:03:33;;;;;;;11.07;1.08;;;;;;;;;;5963900;24;20030;-58
2021/10/21 11:06:01;;;;;;;6.53;0.95;;;;;;;;;;5965455;23;20038;-58
2021/10/21 11:08:47;;;;;;;4.97;0.90;;;;;;;;;;6017336;23;20034;-58
2021/10/21 11:11:36;;;;;;;10.10;0.98;;;;;;;;;;5991827;23;20040;-58
2021/10/21 11:14:08;;;;;;;2.40;0.90;;;;;;;;;;5971808;24;20037;-58
2021/10/21 11:16:56;;;;;;;3.08;0.85;;;;;;;;;;5967311;23;20014;-57
2021/10/21 11:19:42;;;;;;;5.05;0.82;;;;;;;;;;5967925;24;20022;-58
2021/10/21 11:22:09;;;;;;;10.30;1.08;;;;;;;;;;5958445;24;20033;-58
2021/10/21 11:24:54;;;;;;;5.70;0.82;;;;;;;;;;5990423;23;20041;-58
2021/10/21 11:27:21;;;;;;;7.85;1.33;;;;;;;;;;5953642;23;20116;-58
2021/10/21 11:29:49;;;;;;;3.63;1.20;;;;;;;;;;5970462;23;20124;-58
2021/10/21 11:32:17;;;;;;;10.77;1.63;;;;;;;;;;5939247;24;20034;-58
2021/10/21 11:34:43;;;;;;;5.70;1.10;;;;;;;;;;5964688;24;20034;-58
2021/10/21 11:37:10;;;;;;;7.45;1.17;;;;;;;;;;5951280;24;20128;-57
2021/10/21 11:39:37;;;;;;;14.90;1.23;;;;;;;;;;5968502;24;20029;-58
2021/10/21 11:42:04;;;;;;;3.00;0.60;;;;;;;;;;5966026;24;20585;-57
2021/10/21 11:44:31;;;;;;;3.22;0.60;;;;;;;;;;5968540;24;20021;-57
2021/10/21 11:46:59;;;;;;;6.85;0.45;;;;;;;;;;5966469;24;20042;-57
2021/10/21 11:49:26;;;;;;;3.00;0.32;;;;;;;;;;5968526;24;20105;-57
2021/10/21 11:52:02;;;;;;;1.15;0.30;;;;;;;;;;5966382;23;20038;-58
2021/10/21 11:54:28;;;;;;;2.97;0.30;;;;;;;;;;6015971;23;20096;-58
2021/10/21 11:56:55;;;;;;;1.98;0.30;;;;;;;;;;5968755;23;20034;-57
2021/10/21 11:59:35;;;;;;;2.08;0.38;;;;;;;;;;5990885;23;20053;-58
2021/10/21 12:02:11;;;;;;;1.38;0.50;;;;;;;;;;5967272;24;20112;-58
2021/10/21 12:04:38;;;;;;;3.17;0.47;;;;;;;;;;5968315;24;20030;-58
2021/10/21 12:07:04;;;;;;;3.95;0.90;;;;;;;;;;5967587;24;20054;-58
2021/10/21 12:09:32;;;;;;;2.67;0.35;;;;;;;;;;5989631;23;20034;-58
2021/10/21 12:12:01;;;;;;;1.25;0.50;;;;;;;;;;5969152;24;20025;-57
2021/10/21 12:14:27;;;;;;;10.93;2.78;;;;;;;;;;5966619;24;20092;-58
2021/10/21 12:16:54;;;;;;;5.25;1.45;;;;;;;;;;5995548;23;20030;-57
2021/10/21 12:19:23;;;;;;;7.93;0.80;;;;;;;;;;6011253;23;20042;-58
2021/10/21 12:21:50;;;;;;;5.85;0.77;;;;;;;;;;5994283;23;20083;-58
2021/10/21 12:24:21;;;;;;;4.55;0.60;;;;;;;;;;5989755;23;20030;-57
2021/10/21 12:26:53;;;;;;;3.05;0.60;;;;;;;;;;5969717;24;20030;-57
2021/10/21 12:29:19;;;;;;;4.10;0.68;;;;;;;;;;5952538;24;20034;-58
2021/10/21 12:31:48;;;;;;;2.95;0.50;;;;;;;;;;5965987;24;20041;-57
2021/10/21 12:34:24;;;;;;;3.08;0.60;;;;;;;;;;5965555;24;20124;-57
2021/10/21 12:36:52;;;;;;;1.35;0.50;;;;;;;;;;5966725;24;20038;-58
2021/10/21 12:39:23;;;;;;;4.37;0.77;;;;;;;;;;5962851;24;20030;-57
2021/10/21 12:41:54;;;;;;;7.68;0.85;;;;;;;;;;5965498;24;20038;-58
2021/10/21 12:44:21;;;;;;;4.47;0.70;;;;;;;;;;5957631;24;20038;-57
2021/10/21 12:46:48;;;;;;;8.68;0.80;;;;;;;;;;5963507;24;20198;-56
2021/10/21 12:49:15;;;;;;;3.60;0.70;;;;;;;;;;5966046;23;20045;-57
2021/10/21 12:51:43;;;;;;;5.45;0.70;;;;;;;;;;5969975;23;20229;-57
2021/10/21 12:54:10;;;;;;;6.30;0.70;;;;;;;;;;5969824;23;20111;-57
2021/10/21 12:56:39;;;;;;;5.95;0.70;;;;;;;;;;5989456;24;20034;-57
2021/10/21 12:59:07;;;;;;;5.00;0.50;;;;;;;;;;5969225;24;20063;-57
2021/10/21 13:01:52;;;;;;;3.72;0.60;;;;;;;;;;5966629;23;20030;-58
2021/10/21 13:04:33;;;;;;;3.78;0.60;;;;;;;;;;5991684;23;20049;-57
2021/10/21 13:07:03;;;;;;;5.10;1.05;;;;;;;;;;5963799;24;20046;-58
2021/10/21 13:09:30;;;;;;;16.30;5.50;;;;;;;;;;5938731;24;20084;-57
2021/10/21 13:11:56;;;;;;;9.77;3.13;;;;;;;;;;5963848;23;20038;-56
2021/10/21 13:14:23;;;;;;;4.10;0.73;;;;;;;;;;5939831;24;20041;-56
2021/10/21 13:16:50;;;;;;;5.68;0.82;;;;;;;;;;5958313;24;20038;-57
2021/10/21 13:19:16;;;;;;;5.63;0.60;;;;;;;;;;5965794;24;20041;-57
2021/10/21 13:21:43;;;;;;;2.45;0.50;;;;;;;;;;5941663;24;20031;-57
2021/10/21 13:24:10;;;;;;;3.63;0.65;;;;;;;;;;5965393;24;20034;-57
2021/10/21 13:26:37;;;;;;;9.15;0.95;;;;;;;;;;5974801;23;20034;-57
2021/10/21 13:29:05;;;;;;;3.78;1.02;;;;;;;;;;5940182;24;20049;-57
2021/10/21 13:31:31;;;;;;;7.33;0.93;;;;;;;;;;5947876;24;20058;-57
2021/10/21 13:33:57;;;;;;;5.88;1.23;;;;;;;;;;5966546;24;20045;-57
2021/10/21 13:36:26;;;;;;;5.50;0.60;;;;;;;;;;5957217;24;20045;-55
2021/10/21 13:38:52;;;;;;;5.03;0.77;;;;;;;;;;5940772;24;20045;-57
2021/10/21 13:41:21;;;;;;;3.13;0.70;;;;;;;;;;5939825;24;20034;-52
2021/10/21 13:43:49;;;;;;;11.30;0.60;;;;;;;;;;5941389;24;20105;-57
2021/10/21 13:46:16;;;;;;;6.72;0.70;;;;;;;;;;5937235;24;20042;-57
2021/10/21 13:48:42;;;;;;;9.50;1.17;;;;;;;;;;5939654;24;20113;-57
2021/10/21 13:51:09;;;;;;;3.03;0.75;;;;;;;;;;5915477;24;20106;-55
2021/10/21 13:53:36;;;;;;;5.85;0.85;;;;;;;;;;5963125;24;20124;-57
2021/10/21 13:56:03;;;;;;;4.47;0.80;;;;;;;;;;5969542;24;20049;-57
2021/10/21 13:58:31;;;;;;;3.50;0.88;;;;;;;;;;5939054;24;20050;-57
2021/10/21 14:00:57;;;;;;;7.37;0.70;;;;;;;;;;5942909;24;20034;-57
2021/10/21 14:03:24;;;;;;;6.22;0.95;;;;;;;;;;5939816;24;20034;-56
2021/10/21 14:05:51;;;;;;;7.95;0.75;;;;;;;;;;5966914;23;20033;-57
2021/10/21 14:08:18;;;;;;;9.70;1.10;;;;;;;;;;5964933;23;20030;-57
2021/10/21 14:10:46;;;;;;;3.70;0.82;;;;;;;;;;6015494;23;20052;-55
2021/10/21 14:13:12;;;;;;;3.17;0.70;;;;;;;;;;5976664;23;20033;-56
2021/10/21 14:15:40;;;;;;;6.35;1.17;;;;;;;;;;5995501;23;20037;-55
2021/10/21 14:18:07;;;;;;;9.50;2.20;;;;;;;;;;6006077;23;20049;-57
2021/10/21 14:20:34;;;;;;;5.57;1.20;;;;;;;;;;5968388;24;20042;-51
2021/10/21 14:23:01;;;;;;;8.15;1.13;;;;;;;;;;5992654;23;20052;-57
2021/10/21 14:25:30;;;;;;;5.15;0.90;;;;;;;;;;5975923;24;20041;-57
2021/10/21 14:27:56;;;;;;;9.38;0.95;;;;;;;;;;5991725;23;20040;-57
2021/10/21 14:30:23;;;;;;;8.30;1.00;;;;;;;;;;6019470;23;20026;-57
2021/10/21 14:32:50;;;;;;;10.43;1.23;;;;;;;;;;6018136;23;20041;-58
2021/10/21 14:35:17;;;;;;;12.63;1.40;;;;;;;;;;6012049;23;20108;-57
2021/10/21 14:37:44;;;;;;;7.18;1.10;;;;;;;;;;5970155;23;20049;-56
2021/10/21 14:40:11;;;;;;;6.68;1.20;;;;;;;;;;6012898;23;20022;-57
2021/10/21 14:42:39;;;;;;;3.35;0.90;;;;;;;;;;5970450;24;20097;-57
2021/10/21 14:45:06;;;;;;;6.05;1.23;;;;;;;;;;5952211;24;20042;-55
2021/10/21 14:47:34;;;;;;;9.40;1.30;;;;;;;;;;5965712;24;20022;-54